Time;durP1;ratioP1;P1;durP2;ratioP2;P2;SDS_P1;SDS_P2;PMS_P1;PMS_P2;Temp;Humidity;BMP_temperature;BMP_pressure;BME280_temperature;BME280_humidity;BME280_pressure;Samples;Min_cycle;Max_cycle;Signal;HPM_P1;HPM_P2
2022/06/02 00:03:46;;;;;;;6.37;5.00;;;;;;;6.86;100.00;96718.75;10330364;28;20245;-58
2022/06/02 00:09:02;;;;;;;6.37;5.57;;;;;;;6.85;100.00;96748.31;10329861;28;20730;-59
2022/06/02 00:14:11;;;;;;;5.77;4.50;;;;;;;7.12;100.00;96746.88;10328665;28;20245;-59
2022/06/02 00:19:25;;;;;;;4.63;4.13;;;;;;;7.00;100.00;96719.28;10329560;28;20210;-59
2022/06/02 00:24:35;;;;;;;6.30;4.43;;;;;;;7.02;100.00;96717.41;10328472;28;20687;-57
2022/06/02 00:29:46;;;;;;;5.27;4.60;;;;;;;7.19;100.00;96729.75;10328476;28;20206;-56
2022/06/02 00:34:50;;;;;;;5.53;4.10;;;;;;;7.29;100.00;96732.41;10329678;28;20186;-54
2022/06/02 00:39:52;;;;;;;9.17;4.50;;;;;;;7.36;100.00;96743.91;10329298;28;20796;-58
2022/06/02 00:45:14;;;;;;;5.47;4.20;;;;;;;7.39;100.00;96756.66;10329066;28;20683;-55
2022/06/02 00:50:38;;;;;;;5.13;4.10;;;;;;;7.47;100.00;96766.41;10329278;28;20241;-58
2022/06/02 01:01:28;;;;;;;5.87;4.23;;;;;;;7.61;100.00;96784.28;10339240;28;20233;-57
2022/06/02 01:07:08;;;;;;;15.03;4.27;;;;;;;7.67;100.00;96782.88;10364947;28;20767;-56
2022/06/02 01:12:14;;;;;;;7.10;4.90;;;;;;;7.73;100.00;96779.72;10366537;28;20213;-59
2022/06/02 01:17:20;;;;;;;5.20;4.70;;;;;;;7.92;100.00;96772.91;10365894;28;20636;-57
2022/06/02 01:22:58;;;;;;;5.10;4.60;;;;;;;8.00;100.00;96791.28;10364793;28;20221;-53
2022/06/02 01:28:18;;;;;;;6.10;4.43;;;;;;;8.13;100.00;96783.16;10364682;28;20228;-57
2022/06/02 01:33:47;;;;;;;4.67;4.17;;;;;;;8.16;100.00;96773.28;10365954;28;20575;-58
2022/06/02 01:39:22;;;;;;;5.20;4.73;;;;;;;8.35;100.00;96758.53;10342205;28;20236;-55
2022/06/02 01:44:24;;;;;;;5.00;4.60;;;;;;;8.22;100.00;96740.56;10373124;28;20220;-59
2022/06/02 01:49:33;;;;;;;5.97;4.60;;;;;;;8.33;100.00;96736.97;10372811;28;20320;-58
2022/06/02 01:54:57;;;;;;;5.37;4.87;;;;;;;8.37;100.00;96727.88;10371139;28;20197;-59
2022/06/02 02:00:09;;;;;;;5.03;4.60;;;;;;;8.52;100.00;96721.28;10370646;28;20232;-58
2022/06/02 02:05:16;;;;;;;6.80;3.90;;;;;;;8.56;100.00;96730.47;10371865;28;20304;-53
2022/06/02 02:10:50;;;;;;;5.40;4.80;;;;;;;8.50;100.00;96738.88;10371371;28;20719;-59
2022/06/02 02:16:13;;;;;;;6.07;3.87;;;;;;;8.42;100.00;96733.50;10371642;28;20196;-59
2022/06/02 02:21:38;;;;;;;5.50;3.97;;;;;;;8.51;100.00;96735.28;10370673;28;20589;-56
2022/06/02 02:27:02;;;;;;;5.43;4.07;;;;;;;8.27;100.00;96743.59;10370962;28;20646;-57
2022/06/02 02:32:27;;;;;;;5.33;4.50;;;;;;;8.00;100.00;96745.13;10370230;28;20189;-54
2022/06/02 02:37:36;;;;;;;9.53;4.20;;;;;;;7.86;100.00;96745.56;10370750;28;20244;-56
2022/06/02 02:42:51;;;;;;;4.40;4.00;;;;;;;7.61;100.00;96757.38;10369804;28;20233;-56
2022/06/02 02:48:10;;;;;;;6.07;4.17;;;;;;;7.52;100.00;96764.25;10369485;28;20213;-57
2022/06/02 02:53:16;;;;;;;6.50;4.20;;;;;;;7.17;100.00;96765.56;10370842;28;20205;-61
2022/06/02 02:58:43;;;;;;;4.07;3.77;;;;;;;7.25;100.00;96772.69;10368870;28;20225;-55
2022/06/02 03:04:05;;;;;;;5.43;3.90;;;;;;;7.00;100.00;96779.19;10347824;28;20233;-55
2022/06/02 03:09:32;;;;;;;4.73;4.30;;;;;;;6.95;100.00;96783.03;10329458;28;20217;-57
2022/06/02 03:14:51;;;;;;;5.03;4.43;;;;;;;6.69;100.00;96790.47;10327430;28;20193;-57
2022/06/02 03:19:57;;;;;;;4.77;4.37;;;;;;;6.51;100.00;96800.66;10328911;28;20229;-55
2022/06/02 03:25:34;;;;;;;4.93;4.50;;;;;;;6.33;100.00;96804.81;10328564;28;20289;-59
2022/06/02 03:30:53;;;;;;;5.83;4.30;;;;;;;6.27;100.00;96813.13;10328686;28;20692;-56
2022/06/02 03:36:03;;;;;;;8.23;5.10;;;;;;;6.19;100.00;96816.34;10327516;28;20679;-58
2022/06/02 03:41:20;;;;;;;4.33;3.93;;;;;;;6.28;100.00;96826.00;10327117;28;20280;-59
2022/06/02 03:46:39;;;;;;;6.73;4.97;;;;;;;6.16;100.00;96827.81;10327406;28;20710;-59
2022/06/02 03:52:02;;;;;;;5.80;5.30;;;;;;;6.11;100.00;96829.16;10328041;28;20198;-57
2022/06/02 03:57:29;;;;;;;7.03;6.10;;;;;;;6.25;100.00;96829.66;10382962;23;20739;-55
2022/06/02 04:02:53;;;;;;;6.27;5.63;;;;;;;6.36;100.00;96843.59;10366398;28;20660;-57
2022/06/02 04:08:31;;;;;;;14.53;6.03;;;;;;;6.48;100.00;96847.75;10367954;28;20307;-56
2022/06/02 04:13:37;;;;;;;6.73;6.00;;;;;;;6.69;100.00;96849.50;10367258;28;20209;-55
2022/06/02 04:20:34;;;;;;;5.90;5.30;;;;;;;7.07;100.00;96850.66;10366977;28;20189;-57
2022/06/02 04:25:02;;;;;;;5.80;5.30;;;;;;;7.72;100.00;96858.94;10367331;28;20656;-51
2022/06/02 04:30:09;;;;;;;6.57;4.80;;;;;;;8.28;100.00;96851.41;10357207;28;20194;-53
2022/06/02 04:35:25;;;;;;;5.90;4.87;;;;;;;8.69;100.00;96852.06;10365525;28;20572;-56
2022/06/02 04:40:47;;;;;;;5.60;4.90;;;;;;;9.11;100.00;96849.03;10366713;28;20643;-49
2022/06/02 04:46:11;;;;;;;5.93;4.70;;;;;;;9.31;100.00;96848.94;10366414;28;20696;-51
2022/06/02 04:51:24;;;;;;;4.93;4.43;;;;;;;9.34;100.00;96849.50;10366934;28;20190;-50
2022/06/02 04:56:34;;;;;;;5.10;4.60;;;;;;;9.56;100.00;96856.13;10364894;28;20249;-51
2022/06/02 05:01:47;;;;;;;5.07;4.60;;;;;;;9.71;100.00;96859.06;10365138;28;20592;-56
2022/06/02 05:07:00;;;;;;;4.57;4.17;;;;;;;9.82;100.00;96871.91;10365869;28;20644;-51
2022/06/02 05:12:22;;;;;;;6.70;5.20;;;;;;;9.68;100.00;96867.22;10365920;28;20192;-50
2022/06/02 05:17:39;;;;;;;5.93;5.33;;;;;;;9.84;100.00;96879.63;10373181;28;20695;-52
2022/06/02 05:23:13;;;;;;;5.80;4.90;;;;;;;10.11;100.00;96870.09;10371862;28;20259;-57
2022/06/02 05:28:28;;;;;;;7.07;5.10;;;;;;;10.36;100.00;96886.84;10332317;28;20695;-50
2022/06/02 05:33:43;;;;;;;5.63;5.10;;;;;;;10.44;100.00;96896.56;10339815;28;20583;-53
2022/06/02 05:39:11;;;;;;;6.70;5.00;;;;;;;10.67;100.00;96881.19;10330412;28;20571;-55
2022/06/02 05:44:20;;;;;;;6.57;5.90;;;;;;;10.60;100.00;96898.53;10331312;28;20755;-51
2022/06/02 05:49:34;;;;;;;9.23;5.67;;;;;;;11.06;100.00;96899.97;10332220;28;20193;-52
2022/06/02 05:55:06;;;;;;;9.70;5.63;;;;;;;11.07;100.00;96891.13;10331321;28;21147;-53
2022/06/02 06:00:42;;;;;;;8.98;5.38;;;;;;;10.95;100.00;96902.03;10329458;28;20234;-50
2022/06/02 06:06:23;;;;;;;5.75;4.70;;;;;;;11.33;100.00;96897.31;10330293;28;20206;-52
2022/06/02 06:11:36;;;;;;;6.78;5.00;;;;;;;10.90;99.52;96897.25;10327629;28;20210;-52
2022/06/02 06:16:46;;;;;;;6.47;4.87;;;;;;;11.64;95.20;96887.13;10328288;28;20693;-50
2022/06/02 06:21:52;;;;;;;4.47;4.07;;;;;;;11.80;94.28;96898.66;10325615;28;20222;-54
2022/06/02 06:27:29;;;;;;;5.80;3.15;;;;;;;13.23;83.57;96843.97;10330407;28;20225;-51
2022/06/02 06:32:51;;;;;;;5.80;2.95;;;;;;;14.38;78.05;96802.97;10325930;28;20632;-56
2022/06/02 06:38:05;;;;;;;3.08;2.88;;;;;;;14.97;72.72;96766.16;10330229;28;20221;-51
2022/06/02 06:43:18;;;;;;;4.00;3.30;;;;;;;14.38;76.21;96826.69;10327587;28;20594;-54
2022/06/02 06:48:34;;;;;;;3.75;3.35;;;;;;;12.87;82.83;96899.63;10328416;28;20194;-57
2022/06/02 06:53:57;;;;;;;3.50;3.28;;;;;;;13.76;78.82;96854.78;10313414;28;21051;-53
2022/06/02 06:59:11;;;;;;;4.32;2.85;;;;;;;15.29;76.38;96843.28;10321757;28;20276;-52
2022/06/02 07:04:48;;;;;;;3.50;3.20;;;;;;;13.28;76.53;96857.44;10326471;28;20225;-59
2022/06/02 07:10:09;;;;;;;3.13;2.40;;;;;;;15.44;70.07;96776.47;10327904;28;20218;-54
2022/06/02 07:15:46;;;;;;;3.80;2.70;;;;;;;15.27;70.44;96805.72;10326182;28;20213;-59
2022/06/02 07:21:05;;;;;;;2.75;2.40;;;;;;;15.60;71.41;96836.16;10314844;28;20609;-54
2022/06/02 07:26:24;;;;;;;2.83;2.63;;;;;;;16.30;64.66;96738.72;10322721;28;20224;-59
2022/06/02 07:31:39;;;;;;;4.28;3.47;;;;;;;13.96;75.27;96907.03;10322915;28;20229;-53
2022/06/02 07:36:45;;;;;;;5.07;3.25;;;;;;;14.71;69.99;96818.53;10313047;28;20246;-57
2022/06/02 07:42:02;;;;;;;2.90;2.70;;;;;;;16.48;64.81;96759.38;10310444;28;20233;-59
2022/06/02 07:47:30;;;;;;;3.35;2.63;;;;;;;17.51;59.39;96676.59;10318769;28;20867;-58
2022/06/02 07:52:57;;;;;;;2.88;2.60;;;;;;;17.43;60.12;96717.34;10320996;28;20781;-59
2022/06/02 07:58:10;;;;;;;3.03;2.83;;;;;;;15.54;63.59;96766.41;10320738;28;20241;-58
2022/06/02 08:03:27;;;;;;;3.05;2.83;;;;;;;14.28;67.45;96845.41;10321300;28;20229;-58
2022/06/02 08:08:35;;;;;;;3.60;2.83;;;;;;;16.13;64.87;96818.25;10319623;28;20631;-57
2022/06/02 08:13:54;;;;;;;2.60;2.35;;;;;;;17.94;59.30;96737.22;10319340;28;20300;-60
2022/06/02 08:19:09;;;;;;;2.78;2.58;;;;;;;16.35;61.98;96768.81;10321900;28;20597;-61
2022/06/02 08:24:27;;;;;;;3.80;2.80;;;;;;;15.52;63.40;96800.94;10317264;28;20233;-60
2022/06/02 08:29:33;;;;;;;2.72;2.53;;;;;;;17.78;60.42;96778.94;10320768;28;20194;-60
2022/06/02 08:34:52;;;;;;;2.20;2.00;;;;;;;16.98;61.80;96814.88;10321763;28;20214;-60
2022/06/02 08:40:01;;;;;;;2.53;2.10;;;;;;;17.28;60.35;96792.44;10318953;28;20579;-59
2022/06/02 08:45:07;;;;;;;3.38;2.30;;;;;;;17.55;57.08;96730.78;10321591;28;20871;-61
2022/06/02 08:50:45;;;;;;;2.28;1.92;;;;;;;18.87;56.01;96752.28;10328516;28;20571;-61
2022/06/02 08:56:19;;;;;;;3.67;2.45;;;;;;;16.70;59.15;96779.44;10329386;28;20248;-60
2022/06/02 09:01:48;;;;;;;2.08;1.98;;;;;;;16.36;61.13;96830.47;10328292;28;20213;-60
2022/06/02 09:07:04;;;;;;;1.70;1.60;;;;;;;16.50;62.36;96856.00;10329167;28;20216;-59
2022/06/02 09:12:26;;;;;;;4.55;2.10;;;;;;;16.93;59.19;96789.00;10327051;28;20201;-60
2022/06/02 09:18:04;;;;;;;1.67;1.58;;;;;;;18.33;55.75;96751.47;10285460;28;20683;-60
2022/06/02 09:23:27;;;;;;;2.15;1.80;;;;;;;16.80;58.54;96802.09;10286907;28;20312;-59
2022/06/02 09:28:47;;;;;;;2.25;1.70;;;;;;;18.76;56.28;96796.16;10287287;28;20244;-60
2022/06/02 09:34:07;;;;;;;2.75;1.70;;;;;;;18.94;54.80;96768.97;10286256;28;20689;-60
2022/06/02 09:39:20;;;;;;;3.92;1.55;;;;;;;18.63;54.21;96751.88;10287212;28;20241;-62
2022/06/02 09:44:57;;;;;;;2.08;1.98;;;;;;;18.67;53.47;96741.69;10297834;28;20236;-61
2022/06/02 09:50:26;;;;;;;1.70;1.50;;;;;;;19.89;49.41;96670.03;10329493;28;20213;-61
2022/06/02 09:55:52;;;;;;;1.90;1.80;;;;;;;22.05;48.80;96716.13;10328802;28;20238;-63
2022/06/02 10:01:11;;;;;;;2.47;2.00;;;;;;;20.86;49.70;96706.00;10324853;28;20261;-63
2022/06/02 10:06:21;;;;;;;2.20;1.95;;;;;;;19.14;50.95;96699.91;10327271;28;20216;-62
2022/06/02 10:11:38;;;;;;;2.63;2.20;;;;;;;20.15;49.89;96694.78;10325193;28;20198;-63
2022/06/02 10:17:16;;;;;;;4.20;1.70;;;;;;;22.00;47.56;96707.16;10324317;28;20213;-63
2022/06/02 10:22:49;;;;;;;2.10;2.00;;;;;;;19.99;47.62;96640.28;10326302;28;20777;-62
2022/06/02 10:28:01;;;;;;;3.25;2.17;;;;;;;20.22;48.04;96665.47;10304440;28;20237;-63
2022/06/02 10:33:32;;;;;;;2.47;2.20;;;;;;;21.59;47.00;96688.28;10322578;28;20196;-62
2022/06/02 10:38:54;;;;;;;2.08;1.80;;;;;;;22.12;44.42;96627.16;10320113;28;20226;-61
2022/06/02 10:44:09;;;;;;;2.38;1.65;;;;;;;23.11;43.63;96643.16;10321572;28;20230;-63
2022/06/02 10:49:17;;;;;;;2.05;1.88;;;;;;;22.66;43.59;96651.03;10323116;28;20300;-63
2022/06/02 10:55:07;;;;;;;2.20;2.00;;;;;;;22.96;43.24;96648.16;10325289;28;20316;-64
2022/06/02 11:00:31;;;;;;;2.47;2.28;;;;;;;22.79;42.90;96629.41;10272976;28;20230;-64
2022/06/02 11:05:59;;;;;;;2.40;2.20;;;;;;;21.07;44.99;96643.47;10322295;28;20205;-63
2022/06/02 11:10:59;;;;;;;1.80;1.60;;;;;;;23.23;40.70;96594.16;10318129;28;20194;-64
2022/06/02 11:16:37;;;;;;;2.20;2.00;;;;;;;22.32;45.98;96723.69;10323391;28;20581;-64
2022/06/02 11:21:59;;;;;;;2.30;2.10;;;;;;;23.36;43.09;96675.94;10322076;28;20236;-63
2022/06/02 11:27:20;;;;;;;2.58;1.88;;;;;;;22.73;43.69;96663.19;10324299;28;20256;-64
2022/06/02 11:32:47;;;;;;;2.35;2.15;;;;;;;20.10;46.51;96638.75;10322139;28;20200;-64
2022/06/02 11:38:17;;;;;;;4.25;2.78;;;;;;;22.17;44.92;96669.94;10322913;28;20217;-64
2022/06/02 11:43:26;;;;;;;1.88;1.77;;;;;;;23.28;42.92;96669.94;10322369;28;20222;-63
2022/06/02 11:48:51;;;;;;;3.50;2.50;;;;;;;22.04;43.21;96601.63;10322495;28;20205;-64
2022/06/02 11:54:24;;;;;;;2.17;1.98;;;;;;;21.98;44.43;96663.91;10321460;28;20248;-64
2022/06/02 11:59:59;;;;;;;2.42;2.10;;;;;;;20.67;44.88;96626.13;10322283;28;20655;-65
2022/06/02 12:05:21;;;;;;;2.35;1.85;;;;;;;19.24;47.88;96679.00;10321926;28;20312;-64
2022/06/02 12:10:37;;;;;;;1.83;1.70;;;;;;;20.01;49.00;96731.28;10319163;28;20256;-64
2022/06/02 12:16:11;;;;;;;1.65;1.55;;;;;;;23.11;41.93;96643.16;10320455;28;20296;-62
2022/06/02 12:21:34;;;;;;;3.00;1.50;;;;;;;23.37;39.75;96592.00;10319747;28;20289;-64
2022/06/02 12:27:07;;;;;;;3.10;1.33;;;;;;;23.25;42.32;96658.91;10309926;28;20222;-65
2022/06/02 12:32:34;;;;;;;3.03;1.90;;;;;;;22.07;40.91;96574.47;10288932;28;20192;-64
2022/06/02 12:38:06;;;;;;;1.40;1.30;;;;;;;23.25;42.09;96658.91;10300152;28;20728;-63
2022/06/02 12:43:27;;;;;;;1.60;1.25;;;;;;;24.12;38.93;96590.00;10319903;28;20225;-64
2022/06/02 12:48:54;;;;;;;1.10;1.10;;;;;;;25.98;36.44;96582.91;10318626;28;20196;-64
2022/06/02 12:54:14;;;;;;;1.75;1.20;;;;;;;25.21;38.29;96607.16;10320622;28;20333;-64
2022/06/02 12:59:30;;;;;;;1.02;1.02;;;;;;;25.95;36.77;96575.31;10318902;28;20225;-64
2022/06/02 13:05:02;;;;;;;1.38;1.02;;;;;;;27.79;34.91;96584.28;10320727;28;20403;-64
2022/06/02 13:10:16;;;;;;;1.33;1.15;;;;;;;26.52;35.22;96541.53;10314772;28;20190;-64
2022/06/02 13:15:35;;;;;;;4.15;1.30;;;;;;;25.24;36.47;96536.13;10315761;28;20633;-64
2022/06/02 13:21:09;;;;;;;1.85;0.93;;;;;;;25.87;39.38;96656.34;10319726;28;20222;-64
2022/06/02 13:26:45;;;;;;;1.00;1.00;;;;;;;27.44;35.15;96575.94;10318030;28;20245;-64
2022/06/02 13:32:06;;;;;;;1.40;0.90;;;;;;;28.03;33.54;96538.78;10318206;28;20271;-64
2022/06/02 13:37:45;;;;;;;1.00;1.00;;;;;;;28.72;32.09;96523.72;10324760;28;20708;-65
2022/06/02 13:43:00;;;;;;;0.80;0.80;;;;;;;30.30;31.98;96584.06;10327750;28;20225;-64
2022/06/02 13:48:18;;;;;;;0.90;0.90;;;;;;;29.33;32.74;96567.63;10325060;28;20228;-64
2022/06/02 13:59:35;;;;;;;3.58;1.05;;;;;;;28.45;32.71;96530.31;10323618;28;20709;-65
2022/06/02 14:05:20;;;;;;;0.80;0.80;;;;;;;29.33;31.87;96529.84;10325444;28;20669;-65
2022/06/02 14:10:59;;;;;;;1.63;0.80;;;;;;;30.42;30.54;96531.22;10310193;28;20233;-65
2022/06/02 14:16:27;;;;;;;3.30;0.68;;;;;;;29.99;31.31;96531.16;10330183;28;20269;-64
2022/06/02 14:21:53;;;;;;;5.03;0.90;;;;;;;29.64;30.93;96510.69;10327181;28;20225;-65
2022/06/02 14:27:47;;;;;;;1.23;0.85;;;;;;;27.01;33.08;96494.66;10323664;28;20224;-65
2022/06/02 14:32:58;;;;;;;3.05;0.90;;;;;;;30.24;29.44;96507.63;10247181;28;20209;-65
2022/06/02 14:38:20;;;;;;;2.60;0.70;;;;;;;31.79;28.58;96534.13;10327673;28;20237;-66
2022/06/02 14:43:42;;;;;;;0.88;0.65;;;;;;;32.29;27.32;96486.63;10329028;28;20815;-65
2022/06/02 14:48:52;;;;;;;1.17;0.80;;;;;;;29.88;30.55;96503.44;10327880;28;20687;-66
2022/06/02 14:54:18;;;;;;;20.70;1.75;;;;;;;29.86;29.91;96499.41;10328498;28;20631;-66
2022/06/02 14:59:40;;;;;;;2.58;0.90;;;;;;;29.23;31.08;96517.22;10327434;28;20201;-66
2022/06/02 15:05:03;;;;;;;0.50;0.40;;;;;;;29.48;29.72;96459.53;10325774;28;20308;-66
2022/06/02 15:10:25;;;;;;;0.80;0.70;;;;;;;28.11;31.06;96454.72;10327920;28;20574;-67
2022/06/02 15:15:53;;;;;;;0.55;0.55;;;;;;;28.09;30.03;96422.69;10327496;28;20213;-66
2022/06/02 15:20:58;;;;;;;0.70;0.70;;;;;;;29.77;29.75;96501.09;10327777;28;20229;-66
2022/06/02 15:26:14;;;;;;;1.10;0.50;;;;;;;28.32;30.75;96468.13;10326018;28;20337;-66
2022/06/02 15:31:19;;;;;;;1.42;1.00;;;;;;;30.98;29.90;96572.19;10327393;28;20193;-66
2022/06/02 15:36:56;;;;;;;0.95;0.80;;;;;;;27.84;34.37;96574.34;10325490;28;20720;-66
2022/06/02 15:42:04;;;;;;;6.70;1.10;;;;;;;27.17;34.41;96541.22;10327159;28;20226;-66
2022/06/02 15:47:41;;;;;;;0.93;0.93;;;;;;;27.04;34.82;96572.91;10324944;28;20214;-66
2022/06/02 15:53:13;;;;;;;1.20;0.98;;;;;;;26.15;36.21;96591.56;10326095;28;20223;-66
2022/06/02 15:58:28;;;;;;;1.20;1.10;;;;;;;25.78;36.77;96600.44;10305651;23;20284;-60
2022/06/02 16:03:52;;;;;;;1.35;1.20;;;;;;;24.68;37.98;96593.44;10311914;28;20656;-58
2022/06/02 16:08:52;;;;;;;1.95;1.60;;;;;;;21.70;42.99;96636.84;10327798;28;20225;-57
2022/06/02 16:14:32;;;;;;;6.90;1.50;;;;;;;21.59;44.08;96680.28;10328454;28;20232;-60
2022/06/02 16:19:58;;;;;;;2.30;1.30;;;;;;;21.80;43.83;96702.94;10300395;28;20254;-60
2022/06/02 16:25:24;;;;;;;3.58;1.40;;;;;;;21.29;45.34;96731.72;10327344;28;20201;-59
2022/06/02 16:30:55;;;;;;;3.00;1.42;;;;;;;20.31;46.86;96749.28;10328402;28;20217;-56
2022/06/02 16:36:09;;;;;;;4.53;1.20;;;;;;;20.43;46.43;96741.41;10327540;28;20198;-58
2022/06/02 16:41:42;;;;;;;2.25;1.50;;;;;;;19.64;47.33;96748.91;10325701;28;20221;-57
2022/06/02 16:47:08;;;;;;;1.42;1.20;;;;;;;19.71;48.19;96786.88;10326627;28;20212;-57
2022/06/02 16:52:18;;;;;;;2.17;1.40;;;;;;;18.83;50.55;96823.50;10328252;28;20264;-59
2022/06/02 16:57:27;;;;;;;1.75;1.52;;;;;;;18.82;50.26;96829.84;10326677;28;20268;-59
2022/06/02 17:02:53;;;;;;;3.47;1.27;;;;;;;18.66;50.69;96844.34;10327934;28;20241;-57
2022/06/02 17:08:21;;;;;;;2.10;1.90;;;;;;;18.10;51.36;96856.13;10330192;28;20233;-58
2022/06/02 17:13:55;;;;;;;2.47;1.50;;;;;;;18.26;50.82;96848.81;10335987;28;20197;-60
2022/06/02 17:19:23;;;;;;;1.63;1.52;;;;;;;18.22;51.50;96868.78;10335870;28;20267;-58
2022/06/02 17:24:47;;;;;;;3.38;1.45;;;;;;;17.78;52.24;96868.25;10336259;28;20312;-55
2022/06/02 17:30:04;;;;;;;1.52;1.33;;;;;;;17.92;51.53;96861.19;10335097;28;20249;-55
2022/06/02 17:35:11;;;;;;;1.30;1.30;;;;;;;17.94;51.88;96875.03;10334537;28;20782;-56
2022/06/02 17:40:25;;;;;;;1.42;1.33;;;;;;;17.74;52.35;96889.00;10336063;28;20820;-57
2022/06/02 17:45:32;;;;;;;1.98;1.35;;;;;;;17.35;53.72;96914.28;10335322;28;20201;-55
2022/06/02 17:50:59;;;;;;;2.67;1.20;;;;;;;17.04;54.95;96934.00;10335987;28;20210;-56
2022/06/02 17:56:29;;;;;;;1.27;1.27;;;;;;;16.46;56.14;96946.50;10333937;28;20194;-57
2022/06/02 18:01:55;;;;;;;1.50;1.40;;;;;;;16.25;56.93;96965.78;10316873;28;20245;-53
2022/06/02 18:07:23;;;;;;;1.23;1.10;;;;;;;16.39;57.76;96980.81;10330725;28;20217;-58
2022/06/02 18:12:47;;;;;;;1.88;1.42;;;;;;;16.33;57.46;96969.13;10333395;28;20221;-56
2022/06/02 18:18:08;;;;;;;1.00;1.00;;;;;;;16.20;58.54;96993.63;10332955;28;20321;-55
2022/06/02 18:23:28;;;;;;;5.60;1.30;;;;;;;15.90;60.87;97021.06;10333419;28;20230;-56
2022/06/02 18:29:05;;;;;;;1.90;1.80;;;;;;;15.15;63.00;97048.13;10334229;28;20216;-54
2022/06/02 18:34:38;;;;;;;2.40;2.20;;;;;;;14.04;68.38;97120.34;10333723;28;20189;-54
2022/06/02 18:40:04;;;;;;;5.82;2.70;;;;;;;12.84;74.57;97126.88;10331899;28;20711;-52
2022/06/02 18:45:25;;;;;;;2.30;2.10;;;;;;;11.94;79.75;97110.72;10330272;28;20317;-55
2022/06/02 18:50:49;;;;;;;1.90;1.80;;;;;;;12.34;81.10;97085.63;10328445;28;20210;-53
2022/06/02 18:56:21;;;;;;;2.45;2.30;;;;;;;11.50;84.65;97094.97;10330189;28;20193;-57
2022/06/02 19:01:44;;;;;;;4.20;2.60;;;;;;;11.27;88.22;97100.72;10329632;28;20241;-57
2022/06/02 19:18:21;;;;;;;2.63;2.42;;;;;;;10.81;93.44;97111.28;10330661;28;20194;-59
2022/06/02 19:23:35;;;;;;;7.20;3.30;;;;;;;10.61;96.37;97123.69;10331597;28;20237;-58
2022/06/02 19:29:06;;;;;;;3.77;2.70;;;;;;;10.52;96.59;97129.75;10331465;28;20280;-57
2022/06/02 19:34:26;;;;;;;4.07;3.07;;;;;;;10.42;99.22;97121.97;10329013;28;20277;-57
2022/06/02 19:40:18;;;;;;;4.57;3.10;;;;;;;10.23;100.00;97135.94;10331268;28;20305;-59
2022/06/02 19:45:34;;;;;;;4.20;3.80;;;;;;;10.16;100.00;97132.25;10245721;29;20203;-59
2022/06/02 19:50:55;;;;;;;3.10;2.90;;;;;;;10.07;100.00;97135.72;10312938;28;20655;-58
2022/06/02 19:56:18;;;;;;;3.80;3.50;;;;;;;9.97;100.00;97126.09;10329339;28;20202;-56
2022/06/02 20:01:37;;;;;;;4.43;3.23;;;;;;;9.77;100.00;97135.81;10329929;28;20329;-57
2022/06/02 20:06:37;;;;;;;3.00;2.80;;;;;;;9.71;100.00;97132.91;10330398;28;20194;-57
2022/06/02 20:11:40;;;;;;;3.47;3.20;;;;;;;9.50;100.00;97148.78;10328696;28;20206;-53
2022/06/02 20:16:46;;;;;;;3.53;3.23;;;;;;;9.44;100.00;97142.31;10327777;28;20668;-54
2022/06/02 20:22:16;;;;;;;5.23;2.97;;;;;;;9.35;100.00;97151.00;10328401;28;20218;-57
2022/06/02 20:27:42;;;;;;;3.97;2.80;;;;;;;9.31;100.00;97149.59;10328632;28;20276;-58
2022/06/02 20:33:05;;;;;;;3.40;3.10;;;;;;;9.19;100.00;97161.97;10326739;28;20220;-56
2022/06/02 20:38:37;;;;;;;3.10;2.90;;;;;;;9.02;100.00;97155.63;10326901;28;20198;-54
2022/06/02 20:44:04;;;;;;;5.93;3.63;;;;;;;8.94;100.00;97158.91;10323600;28;20228;-53
2022/06/02 20:49:12;;;;;;;3.63;3.33;;;;;;;8.88;100.00;97154.22;10328370;28;20249;-57
2022/06/02 20:54:22;;;;;;;4.60;3.63;;;;;;;8.72;100.00;97160.00;10327882;28;20236;-55
2022/06/02 20:59:34;;;;;;;4.80;3.43;;;;;;;8.67;100.00;97164.78;10329259;28;20236;-54
2022/06/02 21:04:43;;;;;;;3.70;3.47;;;;;;;8.59;100.00;97162.00;10329141;28;20288;-56
2022/06/02 21:10:03;;;;;;;5.00;3.47;;;;;;;8.36;100.00;97162.16;10327971;28;20221;-53
2022/06/02 21:15:11;;;;;;;5.73;3.60;;;;;;;8.28;100.00;97168.03;10328181;28;20636;-53
2022/06/02 21:20:20;;;;;;;4.70;3.80;;;;;;;8.11;100.00;97161.66;10328956;28;21015;-52
2022/06/02 21:25:31;;;;;;;6.20;4.07;;;;;;;8.01;100.00;97173.84;10328896;28;20559;-52
2022/06/02 21:30:36;;;;;;;3.87;3.57;;;;;;;7.93;100.00;97168.41;10327483;28;20240;-53
2022/06/02 21:35:44;;;;;;;2.90;2.70;;;;;;;7.89;100.00;97172.22;10328884;28;20194;-53
2022/06/02 21:40:45;;;;;;;4.00;3.70;;;;;;;7.80;100.00;97176.44;10328706;28;20229;-52
2022/06/02 21:46:03;;;;;;;3.70;3.40;;;;;;;7.61;100.00;97174.53;10327989;28;20190;-52
2022/06/02 21:51:12;;;;;;;3.30;3.07;;;;;;;7.64;100.00;97177.72;10328428;28;20276;-53
2022/06/02 21:56:26;;;;;;;4.80;4.40;;;;;;;7.56;100.00;97174.91;10332181;28;20193;-53
2022/06/02 22:01:43;;;;;;;3.40;3.10;;;;;;;7.46;100.00;97182.66;10347926;23;20291;-49
2022/06/02 22:06:56;;;;;;;3.77;3.40;;;;;;;7.29;100.00;97170.19;10333901;28;20248;-49
2022/06/02 22:12:14;;;;;;;3.30;3.00;;;;;;;7.26;100.00;97166.03;10334657;28;20777;-49
2022/06/02 22:17:21;;;;;;;3.77;3.20;;;;;;;7.17;100.00;97171.16;10333368;28;20190;-50
2022/06/02 22:22:37;;;;;;;4.90;3.07;;;;;;;7.19;100.00;97166.66;10333347;28;20272;-49
2022/06/02 22:28:10;;;;;;;3.17;2.87;;;;;;;7.17;100.00;97171.16;10334520;28;20197;-50
2022/06/02 22:33:16;;;;;;;3.83;3.47;;;;;;;7.24;100.00;97169.72;10332868;28;20210;-49
2022/06/02 22:39:01;;;;;;;3.20;2.90;;;;;;;7.19;100.00;97171.88;10332823;28;20609;-51
2022/06/02 22:44:25;;;;;;;3.33;3.03;;;;;;;7.01;100.00;97176.78;10333257;28;20772;-50
2022/06/02 22:49:48;;;;;;;4.60;2.80;;;;;;;7.00;100.00;97180.31;10344125;28;20198;-53
2022/06/02 22:55:01;;;;;;;2.90;2.70;;;;;;;6.78;100.00;97179.41;10348458;28;20221;-52
2022/06/02 23:00:07;;;;;;;2.70;2.50;;;;;;;6.81;100.00;97180.97;10340489;28;20214;-55
2022/06/02 23:05:25;;;;;;;3.40;3.10;;;;;;;6.75;100.00;97183.13;10335054;28;20363;-50
2022/06/02 23:10:45;;;;;;;4.10;3.00;;;;;;;6.77;100.00;97183.81;10331391;28;20664;-54
2022/06/02 23:16:02;;;;;;;3.23;2.93;;;;;;;6.66;100.00;97178.63;10331152;28;20667;-56
2022/06/02 23:21:22;;;;;;;3.57;3.03;;;;;;;6.68;100.00;97183.72;10330784;28;20240;-52
2022/06/02 23:26:50;;;;;;;4.93;2.90;;;;;;;6.54;100.00;97176.97;10330881;28;20194;-53
2022/06/02 23:32:14;;;;;;;2.87;2.57;;;;;;;6.59;100.00;97169.63;10331886;28;20209;-53
2022/06/02 23:37:33;;;;;;;5.93;2.83;;;;;;;6.58;100.00;97165.38;10330413;28;20200;-55
2022/06/02 23:48:51;;;;;;;2.80;2.60;;;;;;;6.60;100.00;97158.28;10331060;28;20202;-53
2022/06/02 23:54:11;;;;;;;1.93;1.83;;;;;;;6.68;100.00;97152.47;10330743;28;20701;-54
2022/06/02 23:59:30;;;;;;;2.20;2.03;;;;;;;6.63;100.00;97163.25;10330957;28;20196;-55
